Time;durP1;ratioP1;P1;durP2;ratioP2;P2;SDS_P1;SDS_P2;PMS_P1;PMS_P2;Temp;Humidity;BMP_temperature;BMP_pressure;BME280_temperature;BME280_humidity;BME280_pressure;Samples;Min_cycle;Max_cycle;Signal;HPM_P1;HPM_P2
2022/04/13 00:00:15;;;;;;;2.83;2.22;;;;;;;10.65;38.79;101639.50;1667909;85;21484;-65
2022/04/13 00:02:42;;;;;;;3.98;2.25;;;;;;;10.65;38.93;101634.29;1667675;85;21065;-65
2022/04/13 00:05:09;;;;;;;3.17;2.40;;;;;;;10.65;39.14;101635.12;1665811;85;21066;-65
2022/04/13 00:07:37;;;;;;;3.60;2.40;;;;;;;10.66;39.29;101638.60;1664935;85;21106;-65
2022/04/13 00:10:07;;;;;;;3.45;2.20;;;;;;;10.67;39.50;101637.74;1663581;84;21051;-66
2022/04/13 00:12:36;;;;;;;4.83;2.45;;;;;;;10.65;40.09;101639.50;1664873;85;21030;-65
2022/04/13 00:15:06;;;;;;;3.70;2.20;;;;;;;10.65;40.45;101638.20;1664592;85;21526;-65
2022/04/13 00:17:38;;;;;;;2.72;1.92;;;;;;;10.66;40.56;101633.39;1666070;85;21507;-65
2022/04/13 00:20:06;;;;;;;5.10;2.50;;;;;;;10.68;40.67;101632.08;1661678;85;21094;-65
2022/04/13 00:22:33;;;;;;;4.90;2.50;;;;;;;10.64;40.87;101629.94;1663925;85;21055;-65
2022/04/13 00:25:00;;;;;;;3.60;2.30;;;;;;;10.67;40.82;101624.73;1660445;85;21083;-65
2022/04/13 00:27:27;;;;;;;5.33;2.98;;;;;;;10.71;40.90;101630.33;1664656;85;21034;-65
2022/04/13 00:29:55;;;;;;;5.00;2.70;;;;;;;10.74;41.17;101628.15;1664846;85;21107;-65
2022/04/13 00:32:22;;;;;;;5.50;2.02;;;;;;;10.76;41.14;101629.84;1667007;85;21081;-65
2022/04/13 00:34:50;;;;;;;3.00;2.58;;;;;;;10.77;41.03;101621.16;1667072;85;21062;-65
2022/04/13 00:37:17;;;;;;;5.50;2.80;;;;;;;10.80;40.66;101626.33;1663895;84;21581;-65
2022/04/13 00:39:44;;;;;;;3.42;2.25;;;;;;;10.81;40.30;101628.07;1656386;85;21066;-65
2022/04/13 00:42:12;;;;;;;5.97;2.67;;;;;;;10.82;40.04;101626.34;1665909;85;21586;-65
2022/04/13 00:44:39;;;;;;;7.83;2.77;;;;;;;10.80;39.88;101621.13;1667823;85;21070;-65
2022/04/13 00:47:08;;;;;;;4.40;2.55;;;;;;;10.78;39.67;101623.34;1667439;85;21062;-65
2022/04/13 00:49:36;;;;;;;3.47;2.30;;;;;;;10.76;39.45;101619.42;1665411;85;21578;-65
2022/04/13 00:52:05;;;;;;;4.80;2.40;;;;;;;10.74;39.18;101617.27;1637841;85;21027;-65
2022/04/13 00:54:34;;;;;;;5.10;2.30;;;;;;;10.70;39.03;101619.48;1666550;85;21030;-65
2022/04/13 00:57:09;;;;;;;9.50;3.05;;;;;;;10.65;38.91;101619.52;1667784;85;21054;-64
2022/04/13 00:59:38;;;;;;;3.75;2.20;;;;;;;10.63;38.80;101619.13;1666430;85;21070;-65
2022/04/13 01:02:07;;;;;;;7.15;2.62;;;;;;;10.59;38.85;101614.82;1667712;85;21038;-65
2022/04/13 01:04:37;;;;;;;3.52;2.37;;;;;;;10.55;38.87;101618.33;1661096;85;21586;-65
2022/04/13 01:07:09;;;;;;;6.55;2.40;;;;;;;10.52;38.88;101618.34;1664984;85;21062;-65
2022/04/13 01:09:37;;;;;;;3.22;2.30;;;;;;;10.48;38.85;101608.83;1662505;85;21078;-65
2022/04/13 01:12:07;;;;;;;5.65;2.47;;;;;;;10.44;38.83;101615.80;1661982;85;21614;-65
2022/04/13 01:14:35;;;;;;;5.45;2.83;;;;;;;10.42;38.85;101605.84;1667643;85;21214;-65
2022/04/13 01:17:03;;;;;;;4.20;2.70;;;;;;;10.40;38.86;101601.52;1648077;85;21118;-65
2022/04/13 01:19:32;;;;;;;3.85;2.45;;;;;;;10.38;38.96;101600.67;1664927;85;21516;-65
2022/04/13 01:22:21;;;;;;;3.33;2.45;;;;;;;10.36;38.98;101601.12;1663834;85;21011;-66
2022/04/13 01:24:48;;;;;;;3.40;2.25;;;;;;;10.34;39.00;101600.27;1664733;84;21039;-65
2022/04/13 01:27:15;;;;;;;7.40;3.02;;;;;;;10.32;39.20;101596.81;1666566;85;21053;-65
2022/04/13 01:29:45;;;;;;;3.92;2.33;;;;;;;10.29;39.26;101598.99;1655631;85;21078;-65
2022/04/13 01:32:12;;;;;;;4.55;3.02;;;;;;;10.25;39.25;101597.29;1667655;85;21519;-65
2022/04/13 01:34:53;;;;;;;5.92;3.65;;;;;;;10.22;39.34;101600.36;1666035;85;21022;-65
2022/04/13 01:37:21;;;;;;;4.75;2.62;;;;;;;10.19;39.37;101591.26;1665620;85;21085;-65
2022/04/13 01:39:50;;;;;;;4.60;2.65;;;;;;;10.13;39.42;101588.70;1665612;85;21503;-65
2022/04/13 01:42:18;;;;;;;4.33;2.55;;;;;;;10.10;39.47;101597.38;1666561;85;21547;-65
2022/04/13 01:44:48;;;;;;;4.53;2.80;;;;;;;10.07;39.60;101597.39;1663464;85;21150;-66
2022/04/13 01:47:16;;;;;;;5.37;3.12;;;;;;;10.04;39.75;101592.62;1669009;85;21059;-66
2022/04/13 01:49:44;;;;;;;4.28;2.62;;;;;;;10.01;39.76;101592.66;1667072;85;21035;-65
2022/04/13 01:52:12;;;;;;;7.03;3.50;;;;;;;9.98;39.68;101592.66;1664562;85;21046;-66
2022/04/13 01:54:39;;;;;;;5.42;3.10;;;;;;;9.93;39.65;101595.73;1664605;85;21031;-66
2022/04/13 01:57:05;;;;;;;5.30;2.98;;;;;;;9.87;39.67;101585.38;1664961;85;21070;-66
2022/04/13 01:59:34;;;;;;;5.00;3.15;;;;;;;9.79;39.73;101583.67;1664406;85;21027;-66
2022/04/13 02:02:04;;;;;;;5.58;3.25;;;;;;;9.74;39.86;101582.84;1661456;85;21051;-66
2022/04/13 02:04:31;;;;;;;6.08;3.30;;;;;;;9.68;39.96;101577.69;1667597;85;21074;-65
2022/04/13 02:07:00;;;;;;;5.78;3.50;;;;;;;9.63;40.04;101581.16;1666186;85;21066;-65
2022/04/13 02:09:27;;;;;;;6.80;3.67;;;;;;;9.57;40.21;101578.16;1664791;85;21027;-65
2022/04/13 02:11:54;;;;;;;6.62;3.42;;;;;;;9.52;40.35;101573.41;1664616;85;21059;-65
2022/04/13 02:14:21;;;;;;;5.75;3.20;;;;;;;9.48;40.49;101576.05;1664798;85;21066;-65
2022/04/13 02:16:49;;;;;;;6.33;3.30;;;;;;;9.43;40.59;101573.47;1664899;85;21047;-65
2022/04/13 02:19:17;;;;;;;4.60;3.45;;;;;;;9.39;40.72;101573.05;1665784;85;21522;-65
2022/04/13 02:21:45;;;;;;;8.93;3.65;;;;;;;9.35;40.83;101567.44;1667862;85;21049;-65
2022/04/13 02:24:14;;;;;;;5.45;3.20;;;;;;;9.31;40.92;101570.92;1667479;85;21070;-65
2022/04/13 02:26:40;;;;;;;4.22;2.85;;;;;;;9.28;41.04;101563.13;1665579;85;21135;-65
2022/04/13 02:29:09;;;;;;;4.83;3.10;;;;;;;9.25;41.14;101563.16;1665145;85;21093;-65
2022/04/13 02:31:36;;;;;;;4.03;2.75;;;;;;;9.22;41.26;101567.47;1655406;85;21053;-65
2022/04/13 02:34:05;;;;;;;4.85;3.20;;;;;;;9.18;41.33;101575.71;1667770;85;21047;-65
2022/04/13 02:36:34;;;;;;;4.83;2.90;;;;;;;9.14;41.51;101575.29;1667863;85;21047;-65
2022/04/13 02:39:02;;;;;;;3.77;3.08;;;;;;;9.11;41.53;101573.98;1627533;87;21101;-65
2022/04/13 02:41:29;;;;;;;6.28;3.50;;;;;;;9.08;41.60;101580.50;1622494;88;21565;-66
2022/04/13 02:43:56;;;;;;;5.97;3.67;;;;;;;9.06;41.78;101578.34;1611899;88;21552;-65
2022/04/13 02:46:23;;;;;;;4.30;3.40;;;;;;;9.04;41.84;101576.19;1612848;88;21567;-65
2022/04/13 02:48:50;;;;;;;8.73;3.12;;;;;;;9.02;41.87;101572.73;1612917;88;21044;-65
2022/04/13 02:51:17;;;;;;;6.30;3.22;;;;;;;8.99;42.02;101575.32;1610994;88;21029;-65
2022/04/13 02:53:44;;;;;;;6.72;3.30;;;;;;;8.99;42.12;101572.72;1610354;88;21080;-65
2022/04/13 02:56:10;;;;;;;5.10;3.25;;;;;;;8.97;42.18;101583.13;1605326;88;21060;-65
2022/04/13 02:58:38;;;;;;;5.28;3.20;;;;;;;8.96;42.27;101576.64;1612371;88;21096;-65
2022/04/13 03:01:06;;;;;;;6.35;3.83;;;;;;;8.96;42.29;101580.53;1610274;88;21079;-66
2022/04/13 03:03:33;;;;;;;5.50;3.80;;;;;;;8.96;42.28;101577.48;1611954;88;21528;-65
2022/04/13 03:06:03;;;;;;;6.90;3.58;;;;;;;8.96;42.30;101579.23;1612027;88;21143;-65
2022/04/13 03:08:30;;;;;;;8.75;3.75;;;;;;;8.96;42.31;101575.34;1613022;88;21060;-65
2022/04/13 03:10:58;;;;;;;6.50;3.35;;;;;;;8.94;42.37;101577.08;1612758;88;21056;-65
2022/04/13 03:13:26;;;;;;;6.58;3.83;;;;;;;8.94;42.40;101579.67;1610952;88;21052;-65
2022/04/13 03:15:54;;;;;;;7.00;3.60;;;;;;;8.92;42.42;101582.25;1602804;88;21052;-66
2022/04/13 03:18:20;;;;;;;6.05;4.05;;;;;;;8.92;42.48;101585.30;1612713;87;21555;-66
2022/04/13 03:20:49;;;;;;;5.42;3.30;;;;;;;8.90;42.54;101586.58;1612159;88;21079;-65
2022/04/13 03:23:16;;;;;;;5.78;3.22;;;;;;;8.89;42.59;101584.00;1610457;88;21079;-65
2022/04/13 03:25:42;;;;;;;6.35;3.58;;;;;;;8.89;42.56;101589.19;1609524;88;21091;-64
2022/04/13 03:28:10;;;;;;;5.10;3.30;;;;;;;8.88;42.63;101582.28;1616899;88;21056;-64
2022/04/13 03:30:37;;;;;;;4.85;3.50;;;;;;;8.87;42.65;101585.73;1613124;88;21064;-65
2022/04/13 03:33:06;;;;;;;6.00;3.22;;;;;;;8.86;42.66;101576.23;1612736;88;21097;-65
2022/04/13 03:35:33;;;;;;;5.75;3.80;;;;;;;8.86;42.71;101586.61;1610838;88;21753;-65
2022/04/13 03:37:59;;;;;;;4.35;3.08;;;;;;;8.85;42.70;101579.68;1613915;87;21548;-64
2022/04/13 03:40:26;;;;;;;5.65;3.40;;;;;;;8.83;42.72;101578.39;1652689;86;21086;-65
2022/04/13 03:42:53;;;;;;;7.45;3.42;;;;;;;8.83;42.73;101580.98;1639642;86;21084;-65
2022/04/13 03:45:22;;;;;;;4.72;3.50;;;;;;;8.82;42.81;101574.52;1639430;86;21086;-65
2022/04/13 03:47:49;;;;;;;6.33;3.52;;;;;;;8.83;42.89;101572.33;1655989;86;21540;-64
2022/04/13 03:50:17;;;;;;;4.60;3.20;;;;;;;8.84;42.89;101576.67;1657060;86;21063;-65
2022/04/13 03:52:46;;;;;;;7.08;3.77;;;;;;;8.85;42.83;101574.48;1658709;86;21012;-65
2022/04/13 03:55:15;;;;;;;5.80;3.62;;;;;;;8.87;42.91;101572.75;1655099;85;21062;-65
2022/04/13 03:57:44;;;;;;;5.55;2.95;;;;;;;8.89;42.89;101572.31;1653648;86;21039;-65
2022/04/13 04:00:12;;;;;;;9.23;3.17;;;;;;;8.91;42.90;101564.09;1655989;86;21122;-65
2022/04/13 04:02:41;;;;;;;3.95;2.95;;;;;;;8.94;42.89;101569.30;1655869;86;21104;-65
2022/04/13 04:05:08;;;;;;;4.50;2.98;;;;;;;8.96;42.90;101564.96;1656426;85;21055;-65
2022/04/13 04:07:37;;;;;;;6.45;3.17;;;;;;;8.98;42.85;101565.82;1657615;86;21531;-65
2022/04/13 04:10:08;;;;;;;5.53;3.08;;;;;;;9.01;42.87;101564.50;1658690;86;21039;-65
2022/04/13 04:12:41;;;;;;;4.97;2.87;;;;;;;9.04;42.86;101569.70;1658871;86;21083;-65
2022/04/13 04:15:10;;;;;;;6.42;3.15;;;;;;;9.06;42.95;101569.26;1657858;86;21107;-66
2022/04/13 04:17:38;;;;;;;4.20;2.37;;;;;;;9.09;42.95;101564.05;1654747;86;21106;-65
2022/04/13 04:20:07;;;;;;;4.50;2.62;;;;;;;9.13;42.95;101565.77;1658956;86;21028;-64
2022/04/13 04:22:35;;;;;;;4.83;3.02;;;;;;;9.16;42.88;101561.88;1658670;85;21102;-66
2022/04/13 04:25:04;;;;;;;4.00;2.60;;;;;;;9.20;42.86;101566.19;1642983;86;21535;-67
2022/04/13 04:27:33;;;;;;;3.98;3.00;;;;;;;9.24;42.82;101554.91;1658045;86;21043;-66
2022/04/13 04:30:00;;;;;;;6.40;2.92;;;;;;;9.26;42.82;101557.07;1658648;86;21543;-65
2022/04/13 04:32:26;;;;;;;6.22;3.33;;;;;;;9.25;42.98;101565.75;1658900;86;21095;-65
2022/04/13 04:34:53;;;;;;;5.50;2.87;;;;;;;9.30;43.00;101552.72;1656314;86;21523;-64
2022/04/13 04:37:20;;;;;;;4.00;2.98;;;;;;;9.39;42.80;101553.57;1655825;86;21087;-64
2022/04/13 04:39:48;;;;;;;6.33;2.50;;;;;;;9.40;42.78;101546.61;1650713;85;21539;-64
2022/04/13 04:42:15;;;;;;;3.92;2.72;;;;;;;9.42;42.83;101547.05;1653784;86;21095;-65
2022/04/13 04:44:42;;;;;;;4.97;3.17;;;;;;;9.45;42.78;101537.08;1656175;86;21067;-64
2022/04/13 04:47:10;;;;;;;4.33;2.70;;;;;;;9.50;42.80;101544.43;1655852;86;21293;-64
2022/04/13 04:49:36;;;;;;;4.08;2.83;;;;;;;9.54;42.67;101544.38;1653838;86;21055;-65
2022/04/13 04:52:05;;;;;;;4.28;3.05;;;;;;;9.59;42.64;101543.94;1653963;85;21504;-64
2022/04/13 04:54:32;;;;;;;3.75;3.00;;;;;;;9.64;42.69;101542.16;1649454;86;21502;-65
2022/04/13 04:57:00;;;;;;;4.85;2.58;;;;;;;9.69;42.57;101545.61;1653063;86;21055;-65
2022/04/13 04:59:26;;;;;;;5.08;2.90;;;;;;;9.75;42.54;101540.38;1653186;85;21535;-65
2022/04/13 05:01:54;;;;;;;5.25;2.72;;;;;;;9.82;42.31;101534.28;1654666;86;21079;-65
2022/04/13 05:04:22;;;;;;;6.10;2.95;;;;;;;9.93;42.22;101546.34;1655918;86;21490;-65
2022/04/13 05:06:48;;;;;;;5.03;2.65;;;;;;;10.00;42.12;101546.71;1655683;86;21575;-65
2022/04/13 05:09:22;;;;;;;10.78;2.75;;;;;;;10.04;41.91;101539.31;1653554;86;21059;-64
2022/04/13 05:11:50;;;;;;;5.25;2.55;;;;;;;10.09;41.85;101538.86;1653664;86;21063;-65
2022/04/13 05:14:20;;;;;;;4.53;2.30;;;;;;;10.14;41.70;101539.27;1654851;86;21612;-65
2022/04/13 05:16:49;;;;;;;4.22;2.30;;;;;;;10.22;41.68;101537.94;1655715;86;21094;-65
2022/04/13 05:19:16;;;;;;;4.85;2.90;;;;;;;10.29;41.58;101536.99;1648644;86;21051;-65
2022/04/13 05:21:43;;;;;;;3.40;2.08;;;;;;;10.35;41.46;101524.80;1652660;86;21078;-66
2022/04/13 05:24:10;;;;;;;4.12;2.77;;;;;;;10.42;41.41;101526.92;1653849;85;21123;-65
2022/04/13 05:26:38;;;;;;;4.83;2.47;;;;;;;10.50;41.21;101518.60;1655717;86;21095;-65
2022/04/13 05:29:06;;;;;;;4.80;2.50;;;;;;;10.55;41.18;101526.78;1652793;86;21063;-66
2022/04/13 05:31:32;;;;;;;3.50;2.50;;;;;;;10.61;41.08;101518.91;1654878;86;21090;-66
2022/04/13 05:34:00;;;;;;;4.15;2.92;;;;;;;10.68;40.78;101521.02;1655953;86;21074;-65
2022/04/13 05:36:28;;;;;;;4.37;2.50;;;;;;;10.75;40.84;101524.00;1655824;86;21051;-65
2022/04/13 05:38:55;;;;;;;3.75;2.60;;;;;;;10.84;40.95;101520.45;1636570;86;21085;-65
2022/04/13 05:41:22;;;;;;;7.62;3.05;;;;;;;10.94;40.78;101520.77;1623246;87;21062;-65
2022/04/13 05:43:49;;;;;;;4.17;2.55;;;;;;;11.03;40.78;101518.03;1614111;88;21088;-65
2022/04/13 05:46:16;;;;;;;7.05;3.05;;;;;;;11.23;40.45;101518.22;1614517;88;21060;-66
2022/04/13 05:48:43;;;;;;;7.15;3.00;;;;;;;11.48;39.83;101522.25;1614210;88;21056;-66
2022/04/13 05:51:10;;;;;;;4.67;2.77;;;;;;;11.74;39.60;101508.03;1613076;88;21111;-66
2022/04/13 05:53:38;;;;;;;3.50;2.50;;;;;;;12.05;39.34;101501.47;1616946;88;21048;-65
2022/04/13 05:56:06;;;;;;;6.03;2.80;;;;;;;12.45;38.61;101500.34;1606173;88;21096;-63
2022/04/13 05:58:33;;;;;;;4.80;2.20;;;;;;;12.88;37.71;101504.75;1616148;88;21095;-64
2022/04/13 06:01:00;;;;;;;3.05;2.33;;;;;;;13.32;37.02;101495.19;1617017;88;21065;-64
2022/04/13 06:03:27;;;;;;;3.77;2.47;;;;;;;13.79;36.54;101488.45;1616494;88;21110;-65
2022/04/13 06:05:55;;;;;;;3.02;2.17;;;;;;;14.28;36.18;101496.88;1614722;88;21063;-65
2022/04/13 06:08:23;;;;;;;3.98;2.70;;;;;;;14.80;34.64;101482.41;1615866;88;21088;-65
2022/04/13 06:10:51;;;;;;;3.77;2.55;;;;;;;15.15;33.90;101477.91;1617097;88;21040;-64
2022/04/13 06:13:17;;;;;;;5.62;2.72;;;;;;;15.47;33.73;101480.93;1616105;88;21028;-65
2022/04/13 06:15:46;;;;;;;5.50;2.45;;;;;;;15.79;33.11;101482.09;1614627;88;21088;-64
2022/04/13 06:18:12;;;;;;;4.15;2.67;;;;;;;16.15;32.37;101466.48;1607016;88;21067;-65
2022/04/13 06:20:41;;;;;;;4.75;2.30;;;;;;;16.48;31.22;101467.55;1615640;88;21087;-65
2022/04/13 06:23:08;;;;;;;4.25;2.45;;;;;;;16.47;31.46;101463.19;1616466;88;21031;-64
2022/04/13 06:25:34;;;;;;;5.20;2.30;;;;;;;16.52;31.17;101456.05;1617477;88;21124;-65
2022/04/13 06:28:03;;;;;;;4.85;2.42;;;;;;;16.53;30.82;101455.13;1617245;88;21052;-65
2022/04/13 06:30:30;;;;;;;4.42;2.55;;;;;;;16.45;31.09;101461.07;1615877;87;21063;-65
2022/04/13 06:32:57;;;;;;;5.05;2.62;;;;;;;16.33;31.51;101449.67;1615063;88;21064;-65
2022/04/13 06:35:25;;;;;;;5.45;1.98;;;;;;;16.25;31.18;101457.38;1614137;88;21568;-65
2022/04/13 06:37:52;;;;;;;4.60;2.35;;;;;;;16.09;31.10;101470.59;1614643;88;21076;-65
2022/04/13 06:40:19;;;;;;;4.33;2.10;;;;;;;16.00;31.46;101464.80;1641791;86;21127;-65
2022/04/13 06:42:48;;;;;;;3.70;2.02;;;;;;;16.00;31.51;101465.66;1657465;86;21055;-65
2022/04/13 06:45:16;;;;;;;4.05;2.27;;;;;;;16.05;31.70;101466.36;1658727;86;21654;-65
2022/04/13 06:47:43;;;;;;;5.75;2.25;;;;;;;16.05;31.89;101455.85;1654806;86;21070;-65
2022/04/13 06:50:11;;;;;;;4.80;2.00;;;;;;;16.14;32.10;101458.19;1647321;86;21546;-65
2022/04/13 06:52:38;;;;;;;4.12;2.47;;;;;;;16.24;32.05;101452.16;1658078;86;21054;-65
2022/04/13 06:55:09;;;;;;;7.70;2.55;;;;;;;16.19;31.59;101451.48;1655428;86;21036;-66
2022/04/13 06:57:38;;;;;;;3.85;2.35;;;;;;;16.10;31.23;101457.89;1658114;86;21071;-65
2022/04/13 07:00:13;;;;;;;3.00;2.17;;;;;;;15.96;31.43;101454.86;1588646;90;21021;-66
2022/04/13 07:02:40;;;;;;;4.15;2.45;;;;;;;15.87;31.71;101447.27;1615607;88;21150;-65
2022/04/13 07:05:09;;;;;;;2.77;2.22;;;;;;;15.75;32.07;101446.36;1615306;88;21570;-65
2022/04/13 07:07:36;;;;;;;5.00;2.72;;;;;;;15.63;31.84;101452.00;1613570;88;21633;-65
2022/04/13 07:10:06;;;;;;;4.03;2.65;;;;;;;15.54;32.01;101441.78;1609744;88;21099;-65
2022/04/13 07:12:36;;;;;;;4.60;2.42;;;;;;;15.59;31.78;101441.64;1612951;88;21053;-65
2022/04/13 07:15:03;;;;;;;2.60;1.90;;;;;;;15.66;32.14;101433.52;1612972;88;21593;-64
2022/04/13 07:17:32;;;;;;;3.62;2.10;;;;;;;15.75;31.67;101445.05;1610627;88;21585;-64
2022/04/13 07:20:00;;;;;;;5.95;2.50;;;;;;;15.78;31.97;101425.28;1615477;88;21034;-65
2022/04/13 07:22:28;;;;;;;4.62;2.17;;;;;;;15.87;31.75;101436.78;1613571;88;21130;-64
2022/04/13 07:24:55;;;;;;;4.60;2.10;;;;;;;15.97;31.94;101442.12;1613077;88;21069;-64
2022/04/13 07:27:22;;;;;;;5.87;2.00;;;;;;;16.06;31.37;101435.27;1612672;88;21557;-65
2022/04/13 07:29:49;;;;;;;3.47;2.05;;;;;;;16.11;31.53;101432.05;1612747;88;21143;-64
2022/04/13 07:32:16;;;;;;;6.20;2.50;;;;;;;16.08;32.45;101433.45;1613110;88;21113;-64
2022/04/13 07:34:44;;;;;;;3.25;2.22;;;;;;;16.02;32.09;101432.80;1614625;88;21626;-64
2022/04/13 07:37:11;;;;;;;4.80;2.72;;;;;;;15.93;31.01;101435.73;1615681;88;21073;-65
2022/04/13 07:39:38;;;;;;;3.55;2.20;;;;;;;15.77;31.12;101431.42;1614874;88;21133;-64
2022/04/13 07:42:07;;;;;;;3.20;2.17;;;;;;;15.64;31.42;101434.50;1612622;88;21065;-64
2022/04/13 07:44:33;;;;;;;4.78;2.52;;;;;;;15.57;32.19;101440.39;1614457;88;21034;-65
2022/04/13 07:47:03;;;;;;;2.90;1.98;;;;;;;15.53;31.94;101440.08;1614635;88;21106;-65
2022/04/13 07:49:31;;;;;;;3.22;1.82;;;;;;;15.50;31.72;101434.92;1615310;88;21073;-64
2022/04/13 07:52:00;;;;;;;5.37;1.82;;;;;;;15.45;31.59;101448.64;1614942;88;21057;-64
2022/04/13 07:54:26;;;;;;;4.55;2.40;;;;;;;15.35;31.14;101438.00;1613101;88;21062;-64
2022/04/13 07:56:53;;;;;;;3.50;1.92;;;;;;;15.23;31.19;101435.72;1612820;88;21060;-64
2022/04/13 07:59:21;;;;;;;2.77;1.32;;;;;;;15.20;32.40;101435.83;1612338;88;21082;-64
2022/04/13 08:01:48;;;;;;;2.77;1.82;;;;;;;15.21;32.26;101439.70;1612521;87;21098;-65
2022/04/13 08:04:16;;;;;;;3.67;1.92;;;;;;;15.29;32.12;101423.29;1661337;85;21542;-64
2022/04/13 08:06:42;;;;;;;3.92;1.70;;;;;;;15.36;32.24;101435.33;1669322;85;21082;-64
2022/04/13 08:09:09;;;;;;;4.10;2.20;;;;;;;15.40;31.69;101417.28;1669911;85;21118;-64
2022/04/13 08:11:37;;;;;;;1.85;1.32;;;;;;;15.48;32.06;101415.75;1667882;85;21050;-64
2022/04/13 08:14:05;;;;;;;3.10;1.45;;;;;;;15.61;32.12;101413.16;1667526;85;21530;-65
2022/04/13 08:16:33;;;;;;;2.70;1.75;;;;;;;15.68;31.65;101417.31;1668685;85;21015;-65
2022/04/13 08:19:00;;;;;;;2.85;1.30;;;;;;;15.70;31.63;101415.50;1659217;85;21114;-65
2022/04/13 08:21:27;;;;;;;2.87;1.80;;;;;;;15.70;29.86;101406.31;1665044;85;21066;-65
2022/04/13 08:23:55;;;;;;;3.58;1.70;;;;;;;15.68;31.27;101400.26;1665639;85;21138;-65
2022/04/13 08:26:21;;;;;;;3.40;1.30;;;;;;;15.67;30.88;101394.59;1679463;85;21966;-65
2022/04/13 08:28:50;;;;;;;2.42;1.50;;;;;;;15.68;31.01;101400.26;1667044;85;21058;-65
2022/04/13 08:31:18;;;;;;;3.52;1.77;;;;;;;15.71;30.84;101393.58;1668686;85;21098;-66
2022/04/13 08:33:46;;;;;;;1.87;1.20;;;;;;;15.74;30.12;101394.81;1665973;85;21019;-65
2022/04/13 08:36:14;;;;;;;2.58;1.50;;;;;;;15.72;29.77;101383.51;1670843;85;21023;-65
2022/04/13 08:38:43;;;;;;;3.67;1.40;;;;;;;15.68;29.82;101391.08;1669645;85;21015;-65
2022/04/13 08:41:15;;;;;;;3.33;1.57;;;;;;;15.65;29.19;101388.53;1667339;84;21062;-65
2022/04/13 08:43:56;;;;;;;2.05;1.65;;;;;;;15.60;28.64;101375.17;1611415;89;21073;-65
2022/04/13 08:46:24;;;;;;;4.50;1.60;;;;;;;15.53;29.29;101385.00;1605187;89;21049;-63
2022/04/13 08:48:55;;;;;;;4.45;1.95;;;;;;;15.51;29.79;101383.33;1611553;89;21061;-63
2022/04/13 08:51:24;;;;;;;2.55;1.37;;;;;;;15.49;31.09;101382.08;1611648;89;21558;-64
2022/04/13 08:53:59;;;;;;;3.90;1.32;;;;;;;15.50;30.73;101385.08;1611411;89;21113;-65
2022/04/13 08:56:26;;;;;;;2.80;1.60;;;;;;;15.53;30.32;101382.37;1588320;90;21062;-65
2022/04/13 08:59:03;;;;;;;2.83;1.30;;;;;;;15.55;30.93;101383.19;1573185;90;21057;-64
2022/04/13 09:01:50;;;;;;;3.52;1.57;;;;;;;15.62;30.85;101382.06;1572960;90;21068;-64
2022/04/13 09:04:18;;;;;;;5.17;1.70;;;;;;;15.65;30.81;101381.98;1518228;93;21147;-65
2022/04/13 09:06:45;;;;;;;2.75;1.35;;;;;;;15.67;31.14;101377.53;1518220;94;21097;-65
2022/04/13 09:09:15;;;;;;;6.40;2.15;;;;;;;15.69;31.70;101382.73;1518316;94;21673;-64
2022/04/13 09:11:44;;;;;;;3.37;1.60;;;;;;;15.70;30.63;101373.96;1518184;94;21101;-65
2022/04/13 09:14:11;;;;;;;2.10;1.37;;;;;;;15.70;30.48;101380.08;1518334;94;21181;-64
2022/04/13 09:16:38;;;;;;;3.50;1.62;;;;;;;15.72;30.93;101362.52;1515972;94;21175;-65
2022/04/13 09:19:06;;;;;;;3.17;1.60;;;;;;;15.74;31.08;101355.89;1518592;94;21073;-64
2022/04/13 09:21:35;;;;;;;2.52;1.22;;;;;;;15.72;31.02;101350.70;1518269;93;21090;-64
2022/04/13 09:24:02;;;;;;;1.50;1.00;;;;;;;15.70;30.83;101360.40;1518197;94;21089;-64
2022/04/13 09:26:30;;;;;;;4.10;1.35;;;;;;;15.69;30.87;101351.24;1513733;93;21597;-64
2022/04/13 09:28:58;;;;;;;1.35;0.80;;;;;;;15.68;32.04;101347.78;1518439;94;21133;-64
2022/04/13 09:31:24;;;;;;;3.85;1.62;;;;;;;15.67;32.19;101353.92;1518137;94;21113;-64
2022/04/13 09:33:51;;;;;;;5.80;1.20;;;;;;;15.66;32.45;101356.13;1506047;94;21106;-65
2022/04/13 09:36:19;;;;;;;5.10;1.32;;;;;;;15.63;33.00;101351.00;1492946;96;21185;-64
2022/04/13 09:38:45;;;;;;;2.37;1.10;;;;;;;15.58;32.70;101356.00;1493305;96;21099;-64
2022/04/13 09:41:13;;;;;;;3.85;1.10;;;;;;;15.54;33.53;101361.78;1580150;85;21080;-65
2022/04/13 09:43:41;;;;;;;3.62;1.30;;;;;;;15.51;33.45;101352.72;1669161;85;21065;-64
2022/04/13 09:46:08;;;;;;;6.72;1.80;;;;;;;15.42;32.80;101355.59;1664265;85;21065;-64
2022/04/13 09:48:36;;;;;;;2.95;1.72;;;;;;;15.34;33.60;101373.34;1654246;85;21544;-65
2022/04/13 09:51:05;;;;;;;6.67;1.95;;;;;;;15.29;33.76;101367.39;1665852;85;21064;-64
2022/04/13 09:53:33;;;;;;;4.22;1.90;;;;;;;15.27;33.40;101371.35;1664877;85;21072;-64
2022/04/13 09:56:00;;;;;;;5.37;2.37;;;;;;;15.30;34.01;101369.09;1650562;85;21048;-64
2022/04/13 09:58:32;;;;;;;4.55;1.90;;;;;;;15.30;34.64;101376.96;1665249;85;21076;-64
2022/04/13 10:01:02;;;;;;;2.95;1.60;;;;;;;15.29;33.97;101367.39;1665308;85;21044;-63
2022/04/13 10:03:30;;;;;;;;;;;;;;;15.29;33.70;101382.65;1668703;85;21528;-64
2022/04/13 10:05:58;;;;;;;3.98;1.27;;;;;;;15.29;33.94;101380.50;1665989;85;20130;-64
2022/04/13 10:08:27;;;;;;;3.65;1.50;;;;;;;15.28;33.16;101381.39;1664121;85;21037;-64
2022/04/13 10:13:40;;;;;;;4.65;1.30;;;;;;;15.29;34.54;101389.68;1597241;90;21102;-63
2022/04/13 10:16:10;;;;;;;4.83;1.47;;;;;;;15.30;33.70;101396.63;1571867;91;21116;-64
2022/04/13 10:18:58;;;;;;;3.10;1.50;;;;;;;15.30;33.65;101383.52;1571687;90;21105;-63
2022/04/13 10:21:45;;;;;;;3.00;1.75;;;;;;;15.27;34.18;101382.31;1571775;88;21096;-64
2022/04/13 10:24:27;;;;;;;4.78;1.65;;;;;;;15.24;33.54;101388.95;1583905;90;21093;-63
2022/04/13 10:27:18;;;;;;;2.70;1.40;;;;;;;15.21;34.31;101387.72;1563941;92;21554;-64
2022/04/13 10:29:47;;;;;;;4.17;1.32;;;;;;;15.16;34.11;101388.33;1563654;92;21072;-64
2022/04/13 10:32:24;;;;;;;3.52;1.55;;;;;;;15.07;34.09;101393.39;1569764;91;21132;-64
2022/04/13 10:34:55;;;;;;;4.95;1.65;;;;;;;15.05;34.96;101388.65;1565022;91;21117;-64
2022/04/13 10:37:23;;;;;;;3.70;1.45;;;;;;;15.04;35.62;101379.53;1569934;91;21048;-64
2022/04/13 10:39:54;;;;;;;3.62;1.70;;;;;;;15.05;35.25;101377.30;1570069;91;21624;-64
2022/04/13 10:42:21;;;;;;;5.75;2.30;;;;;;;15.04;35.59;101380.84;1561734;91;21101;-64
2022/04/13 10:45:06;;;;;;;5.80;1.70;;;;;;;15.05;35.00;101378.61;1561063;91;21164;-64
2022/04/13 10:47:52;;;;;;;2.12;1.55;;;;;;;15.12;35.48;101385.40;1512143;93;21121;-64
2022/04/13 10:50:30;;;;;;;4.33;1.50;;;;;;;15.15;34.50;101386.59;1512121;93;21153;-63
2022/04/13 10:53:16;;;;;;;3.30;1.70;;;;;;;15.18;34.69;101386.52;1452728;97;21165;-64
2022/04/13 10:55:45;;;;;;;3.87;1.55;;;;;;;15.19;34.24;101393.02;1454584;97;21206;-64
2022/04/13 10:58:40;;;;;;;5.45;1.60;;;;;;;15.20;34.18;101384.71;1454440;97;21093;-64
2022/04/13 11:01:11;;;;;;;3.20;1.50;;;;;;;15.22;34.18;101381.59;1454536;99;21100;-65
2022/04/13 11:03:39;;;;;;;2.37;1.67;;;;;;;15.20;33.63;101383.40;1454593;97;21670;-65
2022/04/13 11:06:08;;;;;;;2.22;1.12;;;;;;;15.19;34.43;101373.80;1454557;97;21177;-65
2022/04/13 11:08:54;;;;;;;3.47;1.60;;;;;;;15.19;34.03;101381.66;1454420;99;21220;-64
2022/04/13 11:11:22;;;;;;;4.97;1.32;;;;;;;15.17;33.95;101367.75;1440236;99;21093;-65
2022/04/13 11:13:51;;;;;;;5.47;1.40;;;;;;;15.14;34.65;101388.83;1439719;100;21150;-64
2022/04/13 11:16:23;;;;;;;7.10;1.32;;;;;;;15.13;34.21;101379.23;1439665;98;21113;-65
2022/04/13 11:19:15;;;;;;;3.50;1.20;;;;;;;15.14;33.78;101379.21;1451235;98;21089;-65
2022/04/13 11:21:55;;;;;;;3.55;1.50;;;;;;;15.16;34.32;101392.27;1455984;96;21108;-65
2022/04/13 11:24:38;;;;;;;5.20;1.22;;;;;;;15.17;34.65;101372.98;1415329;100;21597;-65
2022/04/13 11:27:07;;;;;;;3.92;1.30;;;;;;;15.17;34.74;101367.75;1393414;103;21181;-65
2022/04/13 11:29:37;;;;;;;4.37;1.42;;;;;;;15.19;34.43;101380.36;1414478;99;21084;-65
2022/04/13 11:32:14;;;;;;;2.47;1.52;;;;;;;15.22;33.70;101361.92;1406866;102;21662;-65
2022/04/13 11:34:53;;;;;;;2.50;1.22;;;;;;;15.26;34.32;101359.61;1403468;102;21195;-65
2022/04/13 11:37:37;;;;;;;1.87;1.10;;;;;;;15.31;34.51;101363.80;1399596;102;21170;-65